Time;durP1;ratioP1;P1;durP2;ratioP2;P2;SDS_P1;SDS_P2;PMS_P1;PMS_P2;Temp;Humidity;BMP_temperature;BMP_pressure;BME280_temperature;BME280_humidity;BME280_pressure;Samples;Min_cycle;Max_cycle;Signal;HPM_P1;HPM_P2
2022/10/12 00:03:48;;;;;;;17.9;24.9;;;;;;;5.6;87.5;99790;;;;
2022/10/12 00:14:48;;;;;;;17.9;24.9;;;;;;;5.4;87.2;99790;;;;
2022/10/12 00:25:48;;;;;;;17.9;24.9;;;;;;;5.3;87.1;99790;;;;
2022/10/12 00:35:48;;;;;;;15.7;24;;;;;;;5.1;86.9;99790;;;;
2022/10/12 00:46:48;;;;;;;15.7;24;;;;;;;4.9;86.4;99790;;;;
2022/10/12 00:56:48;;;;;;;15.7;24;;;;;;;4.7;86.4;99790;;;;
2022/10/12 01:07:48;;;;;;;15.1;25.1;;;;;;;4.7;86.7;99790;;;;
2022/10/12 01:18:48;;;;;;;15.1;25.1;;;;;;;4.6;87.2;99790;;;;
2022/10/12 01:29:48;;;;;;;15.1;25.1;;;;;;;4.5;87.7;99780;;;;
2022/10/12 01:39:48;;;;;;;14.9;21.3;;;;;;;4.5;87.8;99790;;;;
2022/10/12 01:50:48;;;;;;;14.9;21.3;;;;;;;4.6;87.9;99790;;;;
2022/10/12 02:00:48;;;;;;;12.5;19.9;;;;;;;4.6;87.9;99790;;;;
2022/10/12 02:11:48;;;;;;;12.5;19.9;;;;;;;4.5;87.7;99790;;;;
2022/10/12 02:21:48;;;;;;;12.5;19.9;;;;;;;4.2;87.6;99800;;;;
2022/10/12 02:32:48;;;;;;;12;19.6;;;;;;;4.3;87.6;99800;;;;
2022/10/12 02:42:48;;;;;;;12;19.6;;;;;;;4.3;87.7;99800;;;;
2022/10/12 02:53:48;;;;;;;12;19.6;;;;;;;4.2;88;99800;;;;
2022/10/12 03:03:48;;;;;;;13;19.5;;;;;;;4.2;87.7;99810;;;;
2022/10/12 03:14:48;;;;;;;13;19.5;;;;;;;4.2;87.5;99810;;;;
2022/10/12 03:25:48;;;;;;;13;19.5;;;;;;;4.1;87.4;99800;;;;
2022/10/12 03:35:48;;;;;;;10.7;16.6;;;;;;;4;87.5;99800;;;;
2022/10/12 03:45:48;;;;;;;10.7;16.6;;;;;;;3.8;87.3;99800;;;;
2022/10/12 03:56:48;;;;;;;10.7;16.6;;;;;;;3.7;87.2;99800;;;;
2022/10/12 04:07:48;;;;;;;11.6;19.3;;;;;;;3.7;86.8;99810;;;;
2022/10/12 04:18:48;;;;;;;11.6;19.3;;;;;;;3.6;86.6;99810;;;;
2022/10/12 04:28:48;;;;;;;11.6;19.3;;;;;;;3.3;86.7;99810;;;;
2022/10/12 04:39:48;;;;;;;10.5;17.8;;;;;;;3.2;87.1;99820;;;;
2022/10/12 04:49:48;;;;;;;10.5;17.8;;;;;;;3.1;87.3;99820;;;;
2022/10/12 05:00:48;;;;;;;11.8;20.9;;;;;;;3;88.2;99820;;;;
2022/10/12 05:10:48;;;;;;;11.8;20.9;;;;;;;3;88.3;99820;;;;
2022/10/12 05:21:48;;;;;;;11.8;20.9;;;;;;;3.2;88.5;99830;;;;
2022/10/12 05:31:48;;;;;;;10.9;19.1;;;;;;;3.2;88.6;99840;;;;
2022/10/12 05:42:48;;;;;;;10.9;19.1;;;;;;;3.6;89.1;99840;;;;
2022/10/12 05:52:48;;;;;;;10.9;19.1;;;;;;;4.1;89.1;99840;;;;
2022/10/12 06:02:48;;;;;;;12.3;17.9;;;;;;;4.1;89.1;99850;;;;
2022/10/12 06:12:48;;;;;;;12.3;17.9;;;;;;;4.3;89.1;99850;;;;
2022/10/12 06:23:48;;;;;;;12.3;17.9;;;;;;;4.5;88.9;99860;;;;
2022/10/12 06:34:48;;;;;;;12.7;18.5;;;;;;;5.1;89;99850;;;;
2022/10/12 06:45:48;;;;;;;12.7;18.5;;;;;;;5.4;88.3;99860;;;;
2022/10/12 06:56:48;;;;;;;12.7;18.5;;;;;;;5.7;87.8;99860;;;;
2022/10/12 07:06:48;;;;;;;11.7;16.4;;;;;;;6.6;87.9;99860;;;;
2022/10/12 07:16:48;;;;;;;11.7;16.4;;;;;;;7.1;86.6;99860;;;;
2022/10/12 07:27:48;;;;;;;11.7;16.4;;;;;;;7.4;85.4;99870;;;;
2022/10/12 07:37:48;;;;;;;18;22.2;;;;;;;7.5;84.8;99870;;;;
2022/10/12 07:47:48;;;;;;;18;22.2;;;;;;;7.7;85.3;99860;;;;
2022/10/12 07:57:48;;;;;;;18;22.2;;;;;;;7.6;85;99850;;;;
2022/10/12 08:07:48;;;;;;;32.2;39.3;;;;;;;7.8;85.1;99850;;;;
2022/10/12 08:18:48;;;;;;;32.2;39.3;;;;;;;8.1;84.9;99850;;;;
2022/10/12 08:29:48;;;;;;;32.2;39.3;;;;;;;8.4;84.2;99850;;;;
2022/10/12 08:40:48;;;;;;;37.6;48.9;;;;;;;8.7;84.6;99850;;;;
2022/10/12 08:51:48;;;;;;;37.6;48.9;;;;;;;9.3;83.9;99840;;;;
2022/10/12 09:01:48;;;;;;;41.3;46.4;;;;;;;9.4;83.5;99840;;;;
2022/10/12 09:12:48;;;;;;;41.3;46.4;;;;;;;9.6;83.6;99840;;;;
2022/10/12 09:23:48;;;;;;;41.3;46.4;;;;;;;10;83.5;99840;;;;
2022/10/12 09:34:48;;;;;;;29.4;34.1;;;;;;;10.3;83.4;99840;;;;
2022/10/12 09:44:48;;;;;;;29.4;34.1;;;;;;;10.8;82.5;99840;;;;
2022/10/12 09:54:48;;;;;;;29.4;34.1;;;;;;;11.5;81.4;99830;;;;
2022/10/12 10:05:48;;;;;;;21.6;25;;;;;;;12;78.3;99820;;;;
2022/10/12 10:15:48;;;;;;;21.6;25;;;;;;;12.6;76.2;99810;;;;
2022/10/12 10:26:48;;;;;;;21.6;25;;;;;;;13;71.2;99800;;;;
2022/10/12 10:36:48;;;;;;;12.2;15.5;;;;;;;13.3;69.2;99790;;;;
2022/10/12 10:46:48;;;;;;;12.2;15.5;;;;;;;13.6;67.5;99790;;;;
2022/10/12 10:57:48;;;;;;;12.2;15.5;;;;;;;13.5;65.3;99780;;;;
2022/10/12 11:08:48;;;;;;;9.3;15.1;;;;;;;13.9;63.6;99780;;;;
2022/10/12 11:19:48;;;;;;;9.3;15.1;;;;;;;14.2;61.9;99770;;;;
2022/10/12 11:29:48;;;;;;;5.7;10.3;;;;;;;14.1;60.6;99760;;;;
2022/10/12 11:40:48;;;;;;;5.7;10.3;;;;;;;14;58.9;99760;;;;
2022/10/12 11:51:48;;;;;;;5.7;10.3;;;;;;;14.3;58.4;99750;;;;
2022/10/12 12:02:48;;;;;;;4.6;8.6;;;;;;;14.4;58;99750;;;;
2022/10/12 12:12:48;;;;;;;4.6;8.6;;;;;;;14.2;58.4;99740;;;;
2022/10/12 12:22:48;;;;;;;4.6;8.6;;;;;;;14.4;58;99740;;;;
2022/10/12 12:33:48;;;;;;;5.6;11.9;;;;;;;14.3;58.7;99730;;;;
2022/10/12 12:43:48;;;;;;;5.6;11.9;;;;;;;14.4;58;99730;;;;
2022/10/12 12:54:48;;;;;;;5.6;11.9;;;;;;;14.5;56;99720;;;;
2022/10/12 13:04:48;;;;;;;4.6;8.1;;;;;;;14.2;57;99710;;;;
2022/10/12 13:15:48;;;;;;;4.6;8.1;;;;;;;14.5;57.2;99710;;;;
2022/10/12 13:25:49;;;;;;;4.6;8.1;;;;;;;14.4;58.5;99710;;;;
2022/10/12 13:35:48;;;;;;;4.7;9;;;;;;;14.6;58.1;99700;;;;
2022/10/12 13:46:50;;;;;;;4.7;9;;;;;;;14.5;58.4;99690;;;;
2022/10/12 13:57:49;;;;;;;4.7;9;;;;;;;14.5;57.7;99700;;;;
2022/10/12 14:08:48;;;;;;;5.1;10.6;;;;;;;14.5;58.2;99680;;;;
2022/10/12 14:18:49;;;;;;;5.1;10.6;;;;;;;14.4;58.4;99680;;;;
2022/10/12 14:28:48;;;;;;;5.1;10.6;;;;;;;14.2;58.4;99680;;;;
2022/10/12 14:39:48;;;;;;;4.4;8.7;;;;;;;13.9;58.5;99670;;;;
2022/10/12 14:49:48;;;;;;;4.4;8.7;;;;;;;13.8;60.1;99660;;;;
2022/10/12 14:59:48;;;;;;;3.5;7.8;;;;;;;13.4;60.4;99670;;;;
2022/10/12 15:10:48;;;;;;;3.5;7.8;;;;;;;13;61.8;99670;;;;
2022/10/12 15:20:48;;;;;;;3.5;7.8;;;;;;;12.6;63.2;99670;;;;
2022/10/12 15:30:49;;;;;;;4.6;8.3;;;;;;;12.2;64.3;99680;;;;
2022/10/12 15:41:48;;;;;;;4.6;8.3;;;;;;;11.7;65.4;99680;;;;
2022/10/12 15:51:48;;;;;;;4.6;8.3;;;;;;;11.2;66.9;99680;;;;
2022/10/12 16:02:48;;;;;;;5.9;10.3;;;;;;;10.8;68.8;99680;;;;
2022/10/12 16:13:48;;;;;;;5.9;10.3;;;;;;;10.4;69.9;99690;;;;
2022/10/12 16:23:48;;;;;;;5.9;10.3;;;;;;;10.1;71.6;99690;;;;
2022/10/12 16:33:48;;;;;;;8.3;11.9;;;;;;;9.9;71.8;99690;;;;
2022/10/12 16:44:48;;;;;;;8.3;11.9;;;;;;;9.5;73.4;99690;;;;
2022/10/12 16:55:48;;;;;;;8.3;11.9;;;;;;;9.2;74.3;99690;;;;
2022/10/12 17:05:48;;;;;;;22;28;;;;;;;8.9;75.1;99700;;;;
2022/10/12 17:16:48;;;;;;;22;28;;;;;;;8.6;76.3;99700;;;;
2022/10/12 17:26:48;;;;;;;22;28;;;;;;;8.4;77.2;99690;;;;
2022/10/12 17:37:48;;;;;;;22.6;31.8;;;;;;;8.1;77.5;99700;;;;
2022/10/12 17:47:48;;;;;;;22.6;31.8;;;;;;;8;78.1;99700;;;;
2022/10/12 17:57:48;;;;;;;22.6;31.8;;;;;;;7.8;78.1;99700;;;;
2022/10/12 18:08:48;;;;;;;19.4;30.4;;;;;;;7.6;78.6;99700;;;;
2022/10/12 18:18:49;;;;;;;19.4;30.4;;;;;;;7.5;79.3;99690;;;;
2022/10/12 18:29:48;;;;;;;21.5;30;;;;;;;7.5;79.8;99690;;;;
2022/10/12 18:39:48;;;;;;;21.5;30;;;;;;;7.4;79.5;99690;;;;
2022/10/12 18:49:48;;;;;;;21.5;30;;;;;;;7.2;79.4;99690;;;;
2022/10/12 18:59:48;;;;;;;17.5;23.9;;;;;;;7;79.9;99690;;;;
2022/10/12 19:09:48;;;;;;;17.5;23.9;;;;;;;6.8;80;99690;;;;
2022/10/12 19:20:48;;;;;;;17.5;23.9;;;;;;;6.7;80.7;99690;;;;
2022/10/12 19:30:48;;;;;;;13.8;23.4;;;;;;;6.5;80.8;99690;;;;
2022/10/12 19:41:48;;;;;;;13.8;23.4;;;;;;;6.4;81.5;99690;;;;
2022/10/12 19:51:48;;;;;;;13.8;23.4;;;;;;;6.3;81.8;99690;;;;
2022/10/12 20:02:48;;;;;;;9.8;17.1;;;;;;;6.1;81.8;99690;;;;
2022/10/12 20:13:48;;;;;;;9.8;17.1;;;;;;;5.9;81.8;99690;;;;
2022/10/12 20:24:48;;;;;;;9.8;17.1;;;;;;;5.7;82;99700;;;;
2022/10/12 20:34:51;;;;;;;12.4;20.4;;;;;;;5.4;82.4;99690;;;;
2022/10/12 20:45:48;;;;;;;12.4;20.4;;;;;;;5.2;82.7;99700;;;;
2022/10/12 20:56:50;;;;;;;12.4;20.4;;;;;;;5;83;99700;;;;
2022/10/12 21:06:48;;;;;;;12;19.6;;;;;;;4.9;83.2;99700;;;;
2022/10/12 21:17:48;;;;;;;12;19.6;;;;;;;4.7;83.5;99700;;;;
2022/10/12 21:27:48;;;;;;;12;19.6;;;;;;;4.5;83.7;99690;;;;
2022/10/12 21:37:48;;;;;;;12.6;19.8;;;;;;;4.5;85.3;99690;;;;
2022/10/12 21:48:48;;;;;;;12.6;19.8;;;;;;;4.4;85.4;99690;;;;
2022/10/12 21:59:48;;;;;;;11.3;18.3;;;;;;;4.2;85.2;99690;;;;
2022/10/12 22:10:48;;;;;;;11.3;18.3;;;;;;;4.1;85.5;99690;;;;
2022/10/12 22:20:48;;;;;;;11.3;18.3;;;;;;;4;86;99690;;;;
2022/10/12 22:30:48;;;;;;;13.5;23.2;;;;;;;4;86.8;99690;;;;
2022/10/12 22:40:48;;;;;;;13.5;23.2;;;;;;;3.9;87.1;99690;;;;
2022/10/12 22:51:48;;;;;;;13.5;23.2;;;;;;;3.8;87.1;99680;;;;
2022/10/12 23:02:48;;;;;;;13.4;22.6;;;;;;;3.7;86.9;99690;;;;
2022/10/12 23:13:48;;;;;;;13.4;22.6;;;;;;;3.6;86.8;99680;;;;
2022/10/12 23:23:48;;;;;;;13.4;22.6;;;;;;;3.6;87.4;99690;;;;
2022/10/12 23:34:48;;;;;;;13.7;23.8;;;;;;;3.6;88.2;99680;;;;
2022/10/12 23:44:48;;;;;;;13.7;23.8;;;;;;;3.7;88.6;99680;;;;
2022/10/12 23:55:48;;;;;;;13.7;23.8;;;;;;;3.5;88.5;99680;;;;
